sensor_id;sensor_type;location;lat;lon;timestamp;pressure;altitude;pressure_sealevel;temperature;humidity
32083;BME280;18597;48.328;7.932;2022-08-19T00:01:20;99160.09;;;19.31;100.00
32083;BME280;18597;48.328;7.932;2022-08-19T00:03:46;99161.72;;;19.26;100.00
32083;BME280;18597;48.328;7.932;2022-08-19T00:06:12;99156.97;;;19.34;100.00
32083;BME280;18597;48.328;7.932;2022-08-19T00:08:38;99153.22;;;19.29;100.00
32083;BME280;18597;48.328;7.932;2022-08-19T00:11:04;99152.97;;;19.24;100.00
32083;BME280;18597;48.328;7.932;2022-08-19T00:13:31;99151.28;;;19.23;100.00
32083;BME280;18597;48.328;7.932;2022-08-19T00:15:56;99143.78;;;19.25;100.00
32083;BME280;18597;48.328;7.932;2022-08-19T00:18:24;99147.13;;;19.27;100.00
32083;BME280;18597;48.328;7.932;2022-08-19T00:20:51;99144.28;;;19.35;100.00
32083;BME280;18597;48.328;7.932;2022-08-19T00:23:17;99147.22;;;19.40;100.00
32083;BME280;18597;48.328;7.932;2022-08-19T00:25:43;99154.88;;;19.30;100.00
32083;BME280;18597;48.328;7.932;2022-08-19T00:28:09;99152.16;;;19.30;100.00
32083;BME280;18597;48.328;7.932;2022-08-19T00:30:35;99152.81;;;19.32;100.00
32083;BME280;18597;48.328;7.932;2022-08-19T00:33:01;99159.25;;;19.31;100.00
32083;BME280;18597;48.328;7.932;2022-08-19T00:35:26;99156.13;;;19.27;100.00
32083;BME280;18597;48.328;7.932;2022-08-19T00:37:54;99158.38;;;19.24;100.00
32083;BME280;18597;48.328;7.932;2022-08-19T00:40:21;99151.91;;;19.25;100.00
32083;BME280;18597;48.328;7.932;2022-08-19T00:42:47;99143.22;;;19.29;100.00
32083;BME280;18597;48.328;7.932;2022-08-19T00:45:19;99153.84;;;19.31;100.00
32083;BME280;18597;48.328;7.932;2022-08-19T00:47:46;99148.16;;;19.26;100.00
32083;BME280;18597;48.328;7.932;2022-08-19T00:50:15;99146.72;;;19.23;100.00
32083;BME280;18597;48.328;7.932;2022-08-19T00:52:46;99151.03;;;19.18;100.00
32083;BME280;18597;48.328;7.932;2022-08-19T00:55:20;99141.66;;;19.13;100.00
32083;BME280;18597;48.328;7.932;2022-08-19T00:57:53;99150.63;;;19.14;100.00
32083;BME280;18597;48.328;7.932;2022-08-19T01:00:23;99147.66;;;19.09;100.00
32083;BME280;18597;48.328;7.932;2022-08-19T01:02:50;99142.44;;;19.07;100.00
32083;BME280;18597;48.328;7.932;2022-08-19T01:05:23;99146.38;;;19.05;100.00
32083;BME280;18597;48.328;7.932;2022-08-19T01:07:50;99143.69;;;19.05;100.00
32083;BME280;18597;48.328;7.932;2022-08-19T01:10:23;99147.44;;;19.10;100.00
32083;BME280;18597;48.328;7.932;2022-08-19T01:12:50;99145.78;;;19.09;100.00
32083;BME280;18597;48.328;7.932;2022-08-19T01:15:23;99138.34;;;19.18;100.00
32083;BME280;18597;48.328;7.932;2022-08-19T01:17:50;99137.72;;;19.16;100.00
32083;BME280;18597;48.328;7.932;2022-08-19T01:20:22;99140.47;;;19.23;100.00
32083;BME280;18597;48.328;7.932;2022-08-19T01:22:53;99140.38;;;19.09;100.00
32083;BME280;18597;48.328;7.932;2022-08-19T01:25:26;99134.06;;;19.02;100.00
32083;BME280;18597;48.328;7.932;2022-08-19T01:27:53;99135.50;;;18.98;100.00
32083;BME280;18597;48.328;7.932;2022-08-19T01:30:25;99143.63;;;18.98;100.00
32083;BME280;18597;48.328;7.932;2022-08-19T01:32:53;99141.31;;;18.95;100.00
32083;BME280;18597;48.328;7.932;2022-08-19T01:35:19;99134.81;;;18.90;100.00
32083;BME280;18597;48.328;7.932;2022-08-19T01:37:52;99130.25;;;18.90;100.00
32083;BME280;18597;48.328;7.932;2022-08-19T01:40:21;99134.56;;;18.84;100.00
32083;BME280;18597;48.328;7.932;2022-08-19T01:42:49;99137.06;;;18.86;100.00
32083;BME280;18597;48.328;7.932;2022-08-19T01:45:18;99138.75;;;18.87;100.00
32083;BME280;18597;48.328;7.932;2022-08-19T01:47:44;99138.38;;;18.90;100.00
32083;BME280;18597;48.328;7.932;2022-08-19T01:50:11;99124.91;;;19.03;100.00
32083;BME280;18597;48.328;7.932;2022-08-19T01:52:40;99125.75;;;19.04;100.00
32083;BME280;18597;48.328;7.932;2022-08-19T01:55:16;99133.84;;;19.04;100.00
32083;BME280;18597;48.328;7.932;2022-08-19T01:57:51;99135.31;;;19.00;100.00
32083;BME280;18597;48.328;7.932;2022-08-19T02:00:20;99131.78;;;18.99;100.00
32083;BME280;18597;48.328;7.932;2022-08-19T02:02:47;99123.38;;;18.94;100.00
32083;BME280;18597;48.328;7.932;2022-08-19T02:05:13;99115.69;;;18.91;100.00
32083;BME280;18597;48.328;7.932;2022-08-19T02:07:40;99109.47;;;18.97;100.00
32083;BME280;18597;48.328;7.932;2022-08-19T02:10:12;99101.22;;;19.05;100.00
32083;BME280;18597;48.328;7.932;2022-08-19T02:12:38;99103.19;;;18.90;100.00
32083;BME280;18597;48.328;7.932;2022-08-19T02:15:05;99103.56;;;18.87;100.00
32083;BME280;18597;48.328;7.932;2022-08-19T02:17:32;99119.00;;;18.93;100.00
32083;BME280;18597;48.328;7.932;2022-08-19T02:19:58;99123.75;;;18.84;100.00
32083;BME280;18597;48.328;7.932;2022-08-19T02:22:25;99124.13;;;18.81;100.00
32083;BME280;18597;48.328;7.932;2022-08-19T02:24:52;99125.81;;;18.82;100.00
32083;BME280;18597;48.328;7.932;2022-08-19T02:27:18;99129.84;;;18.93;100.00
32083;BME280;18597;48.328;7.932;2022-08-19T02:29:47;99133.34;;;18.87;100.00
32083;BME280;18597;48.328;7.932;2022-08-19T02:32:13;99128.91;;;18.79;100.00
32083;BME280;18597;48.328;7.932;2022-08-19T02:34:39;99135.16;;;18.80;100.00
32083;BME280;18597;48.328;7.932;2022-08-19T02:37:06;99131.41;;;18.81;100.00
32083;BME280;18597;48.328;7.932;2022-08-19T02:39:52;99130.19;;;18.83;100.00
32083;BME280;18597;48.328;7.932;2022-08-19T02:42:18;99128.75;;;18.88;100.00
32083;BME280;18597;48.328;7.932;2022-08-19T02:44:44;99123.59;;;18.93;100.00
32083;BME280;18597;48.328;7.932;2022-08-19T02:47:10;99120.47;;;18.96;100.00
32083;BME280;18597;48.328;7.932;2022-08-19T02:49:36;99125.47;;;18.92;100.00
32083;BME280;18597;48.328;7.932;2022-08-19T02:52:02;99115.88;;;18.90;100.00
32083;BME280;18597;48.328;7.932;2022-08-19T02:54:28;99120.84;;;18.86;100.00
32083;BME280;18597;48.328;7.932;2022-08-19T02:56:54;99127.34;;;18.92;100.00
32083;BME280;18597;48.328;7.932;2022-08-19T02:59:20;99129.59;;;18.88;100.00
32083;BME280;18597;48.328;7.932;2022-08-19T03:01:46;99133.13;;;18.89;100.00
32083;BME280;18597;48.328;7.932;2022-08-19T03:04:15;99132.28;;;18.88;100.00
32083;BME280;18597;48.328;7.932;2022-08-19T03:06:45;99130.25;;;18.90;100.00
32083;BME280;18597;48.328;7.932;2022-08-19T03:09:12;99133.59;;;18.92;100.00
32083;BME280;18597;48.328;7.932;2022-08-19T03:11:39;99122.97;;;18.91;100.00
32083;BME280;18597;48.328;7.932;2022-08-19T03:14:08;99131.50;;;18.94;100.00
32083;BME280;18597;48.328;7.932;2022-08-19T03:16:45;99137.13;;;18.93;100.00
32083;BME280;18597;48.328;7.932;2022-08-19T03:19:12;99138.53;;;18.89;100.00
32083;BME280;18597;48.328;7.932;2022-08-19T03:21:38;99147.94;;;18.93;100.00
32083;BME280;18597;48.328;7.932;2022-08-19T03:24:07;99142.28;;;18.88;100.00
32083;BME280;18597;48.328;7.932;2022-08-19T03:26:34;99140.81;;;18.85;100.00
32083;BME280;18597;48.328;7.932;2022-08-19T03:29:05;99145.00;;;18.88;100.00
32083;BME280;18597;48.328;7.932;2022-08-19T03:31:31;99148.38;;;18.96;100.00
32083;BME280;18597;48.328;7.932;2022-08-19T03:33:57;99161.91;;;18.90;100.00
32083;BME280;18597;48.328;7.932;2022-08-19T03:36:25;99168.97;;;18.91;100.00
32083;BME280;18597;48.328;7.932;2022-08-19T03:38:56;99170.69;;;18.98;100.00
32083;BME280;18597;48.328;7.932;2022-08-19T03:41:26;99169.88;;;18.98;100.00
32083;BME280;18597;48.328;7.932;2022-08-19T03:43:54;99171.75;;;18.97;100.00
32083;BME280;18597;48.328;7.932;2022-08-19T03:46:26;99163.16;;;18.94;100.00
32083;BME280;18597;48.328;7.932;2022-08-19T03:48:55;99155.25;;;18.92;100.00
32083;BME280;18597;48.328;7.932;2022-08-19T03:51:28;99142.22;;;18.81;100.00
32083;BME280;18597;48.328;7.932;2022-08-19T03:53:56;99152.22;;;18.80;100.00
32083;BME280;18597;48.328;7.932;2022-08-19T03:56:22;99159.28;;;18.75;100.00
32083;BME280;18597;48.328;7.932;2022-08-19T03:58:48;99164.69;;;18.75;100.00
32083;BME280;18597;48.328;7.932;2022-08-19T04:01:18;99178.13;;;18.90;100.00
32083;BME280;18597;48.328;7.932;2022-08-19T04:03:46;99178.06;;;18.83;100.00
32083;BME280;18597;48.328;7.932;2022-08-19T04:06:22;99178.72;;;18.85;100.00
32083;BME280;18597;48.328;7.932;2022-08-19T04:08:51;99184.75;;;18.87;100.00
32083;BME280;18597;48.328;7.932;2022-08-19T04:11:23;99174.03;;;19.00;100.00
32083;BME280;18597;48.328;7.932;2022-08-19T04:13:51;99172.38;;;18.99;100.00
32083;BME280;18597;48.328;7.932;2022-08-19T04:16:20;99174.66;;;19.02;100.00
32083;BME280;18597;48.328;7.932;2022-08-19T04:18:48;99178.28;;;19.09;100.00
32083;BME280;18597;48.328;7.932;2022-08-19T04:21:21;99183.19;;;18.99;100.00
32083;BME280;18597;48.328;7.932;2022-08-19T04:23:48;99193.63;;;19.02;100.00
32083;BME280;18597;48.328;7.932;2022-08-19T04:26:17;99192.78;;;19.02;100.00
32083;BME280;18597;48.328;7.932;2022-08-19T04:28:44;99191.47;;;18.91;100.00
32083;BME280;18597;48.328;7.932;2022-08-19T04:31:16;99189.13;;;18.88;100.00
32083;BME280;18597;48.328;7.932;2022-08-19T04:33:42;99190.03;;;18.95;100.00
32083;BME280;18597;48.328;7.932;2022-08-19T04:36:18;99189.19;;;18.95;100.00
32083;BME280;18597;48.328;7.932;2022-08-19T04:38:45;99185.78;;;18.86;100.00
32083;BME280;18597;48.328;7.932;2022-08-19T04:41:10;99174.06;;;18.79;100.00
32083;BME280;18597;48.328;7.932;2022-08-19T04:43:56;99180.09;;;18.74;100.00
32083;BME280;18597;48.328;7.932;2022-08-19T04:46:22;99180.91;;;18.75;100.00
32083;BME280;18597;48.328;7.932;2022-08-19T04:48:48;99179.22;;;18.74;100.00
32083;BME280;18597;48.328;7.932;2022-08-19T04:51:14;99178.06;;;18.83;100.00
32083;BME280;18597;48.328;7.932;2022-08-19T04:53:41;99178.84;;;18.77;100.00
32083;BME280;18597;48.328;7.932;2022-08-19T04:56:11;99175.75;;;18.80;100.00
32083;BME280;18597;48.328;7.932;2022-08-19T04:58:40;99187.88;;;18.84;100.00
32083;BME280;18597;48.328;7.932;2022-08-19T05:01:12;99198.34;;;18.94;100.00
32083;BME280;18597;48.328;7.932;2022-08-19T05:03:38;99194.41;;;18.96;100.00
32083;BME280;18597;48.328;7.932;2022-08-19T05:06:08;99200.22;;;18.93;100.00
32083;BME280;18597;48.328;7.932;2022-08-19T05:08:37;99199.81;;;18.96;100.00
32083;BME280;18597;48.328;7.932;2022-08-19T05:11:16;99205.69;;;19.00;100.00
32083;BME280;18597;48.328;7.932;2022-08-19T05:13:44;99205.50;;;19.01;100.00
32083;BME280;18597;48.328;7.932;2022-08-19T05:16:12;99208.66;;;19.05;100.00
32083;BME280;18597;48.328;7.932;2022-08-19T05:18:39;99220.56;;;19.10;100.00
32083;BME280;18597;48.328;7.932;2022-08-19T05:21:26;99223.72;;;19.14;100.00
32083;BME280;18597;48.328;7.932;2022-08-19T05:24:13;99230.22;;;19.20;100.00
32083;BME280;18597;48.328;7.932;2022-08-19T05:26:43;99233.56;;;19.22;100.00
32083;BME280;18597;48.328;7.932;2022-08-19T05:29:12;99233.56;;;19.22;100.00
32083;BME280;18597;48.328;7.932;2022-08-19T05:31:39;99238.56;;;19.25;100.00
32083;BME280;18597;48.328;7.932;2022-08-19T05:34:06;99240.66;;;19.23;100.00
32083;BME280;18597;48.328;7.932;2022-08-19T05:36:38;99239.63;;;19.24;100.00
32083;BME280;18597;48.328;7.932;2022-08-19T05:39:07;99242.31;;;19.24;100.00
32083;BME280;18597;48.328;7.932;2022-08-19T05:41:34;99252.59;;;19.28;100.00
32083;BME280;18597;48.328;7.932;2022-08-19T05:44:04;99246.13;;;19.29;100.00
32083;BME280;18597;48.328;7.932;2022-08-19T05:46:35;99237.16;;;19.29;100.00
32083;BME280;18597;48.328;7.932;2022-08-19T05:49:04;99231.59;;;19.37;100.00
32083;BME280;18597;48.328;7.932;2022-08-19T05:51:31;99238.53;;;19.46;100.00
32083;BME280;18597;48.328;7.932;2022-08-19T05:54:01;99235.19;;;19.44;100.00
32083;BME280;18597;48.328;7.932;2022-08-19T05:56:27;99234.41;;;19.50;100.00
32083;BME280;18597;48.328;7.932;2022-08-19T05:58:53;99244.91;;;19.60;100.00
32083;BME280;18597;48.328;7.932;2022-08-19T06:01:20;99256.44;;;19.68;100.00
32083;BME280;18597;48.328;7.932;2022-08-19T06:03:47;99255.00;;;19.73;100.00
32083;BME280;18597;48.328;7.932;2022-08-19T06:06:15;99259.03;;;19.83;100.00
32083;BME280;18597;48.328;7.932;2022-08-19T06:08:42;99258.44;;;19.94;100.00
32083;BME280;18597;48.328;7.932;2022-08-19T06:11:17;99265.56;;;20.02;100.00
32083;BME280;18597;48.328;7.932;2022-08-19T06:13:45;99268.53;;;20.07;100.00
32083;BME280;18597;48.328;7.932;2022-08-19T06:16:14;99274.41;;;20.11;100.00
32083;BME280;18597;48.328;7.932;2022-08-19T06:19:00;99273.75;;;20.09;100.00
32083;BME280;18597;48.328;7.932;2022-08-19T06:21:29;99282.41;;;19.91;100.00
32083;BME280;18597;48.328;7.932;2022-08-19T06:23:56;99280.41;;;20.06;100.00
32083;BME280;18597;48.328;7.932;2022-08-19T06:26:23;99286.47;;;20.08;100.00
32083;BME280;18597;48.328;7.932;2022-08-19T06:28:50;99277.78;;;20.19;100.00
32083;BME280;18597;48.328;7.932;2022-08-19T06:31:19;99291.47;;;20.05;100.00
32083;BME280;18597;48.328;7.932;2022-08-19T06:33:48;99286.47;;;20.08;100.00
32083;BME280;18597;48.328;7.932;2022-08-19T06:36:20;99286.91;;;20.12;100.00
32083;BME280;18597;48.328;7.932;2022-08-19T06:38:46;99284.28;;;20.32;100.00
32083;BME280;18597;48.328;7.932;2022-08-19T06:41:12;99292.41;;;20.32;100.00
32083;BME280;18597;48.328;7.932;2022-08-19T06:43:38;99284.50;;;20.37;100.00
32083;BME280;18597;48.328;7.932;2022-08-19T06:46:08;99290.84;;;20.44;100.00
32083;BME280;18597;48.328;7.932;2022-08-19T06:48:36;99293.81;;;20.56;100.00
32083;BME280;18597;48.328;7.932;2022-08-19T06:51:02;99295.34;;;20.85;100.00
32083;BME280;18597;48.328;7.932;2022-08-19T06:53:29;99299.91;;;20.77;100.00
32083;BME280;18597;48.328;7.932;2022-08-19T06:55:55;99299.28;;;20.75;100.00
32083;BME280;18597;48.328;7.932;2022-08-19T06:58:26;99295.16;;;21.06;100.00
32083;BME280;18597;48.328;7.932;2022-08-19T07:00:52;99286.81;;;21.14;100.00
32083;BME280;18597;48.328;7.932;2022-08-19T07:03:17;99304.41;;;21.25;100.00
32083;BME280;18597;48.328;7.932;2022-08-19T07:05:43;99309.59;;;21.13;100.00
32083;BME280;18597;48.328;7.932;2022-08-19T07:08:09;99302.28;;;21.27;100.00
32083;BME280;18597;48.328;7.932;2022-08-19T07:10:35;99295.59;;;21.23;100.00
32083;BME280;18597;48.328;7.932;2022-08-19T07:13:02;99293.97;;;21.48;100.00
32083;BME280;18597;48.328;7.932;2022-08-19T07:15:29;99282.22;;;21.61;100.00
32083;BME280;18597;48.328;7.932;2022-08-19T07:17:56;99286.63;;;21.69;100.00
32083;BME280;18597;48.328;7.932;2022-08-19T07:20:22;99292.03;;;21.82;100.00
32083;BME280;18597;48.328;7.932;2022-08-19T07:22:49;99293.91;;;21.95;100.00
32083;BME280;18597;48.328;7.932;2022-08-19T07:25:15;99287.41;;;22.09;100.00
32083;BME280;18597;48.328;7.932;2022-08-19T07:27:43;99282.44;;;22.44;100.00
32083;BME280;18597;48.328;7.932;2022-08-19T07:30:10;99281.91;;;22.67;100.00
32083;BME280;18597;48.328;7.932;2022-08-19T07:32:37;99291.66;;;23.19;100.00
32083;BME280;18597;48.328;7.932;2022-08-19T07:35:03;99285.09;;;23.27;100.00
32083;BME280;18597;48.328;7.932;2022-08-19T07:37:30;99287.97;;;23.39;98.93
32083;BME280;18597;48.328;7.932;2022-08-19T07:39:56;99279.56;;;23.65;96.66
32083;BME280;18597;48.328;7.932;2022-08-19T07:42:22;99289.69;;;23.83;94.57
32083;BME280;18597;48.328;7.932;2022-08-19T07:44:48;99287.25;;;24.30;91.27
32083;BME280;18597;48.328;7.932;2022-08-19T07:47:14;99284.84;;;24.58;87.66
32083;BME280;18597;48.328;7.932;2022-08-19T07:49:42;99282.84;;;24.66;87.28
32083;BME280;18597;48.328;7.932;2022-08-19T07:52:09;99273.31;;;24.56;89.00
32083;BME280;18597;48.328;7.932;2022-08-19T07:54:37;99274.38;;;24.55;89.20
32083;BME280;18597;48.328;7.932;2022-08-19T07:57:05;99280.41;;;24.76;87.55
32083;BME280;18597;48.328;7.932;2022-08-19T07:59:32;99279.81;;;25.04;84.50
32083;BME280;18597;48.328;7.932;2022-08-19T08:01:59;99276.50;;;25.13;85.31
32083;BME280;18597;48.328;7.932;2022-08-19T08:04:27;99273.81;;;25.37;82.30
32083;BME280;18597;48.328;7.932;2022-08-19T08:07:13;99279.28;;;25.60;80.16
32083;BME280;18597;48.328;7.932;2022-08-19T08:09:59;99277.13;;;25.27;79.42
32083;BME280;18597;48.328;7.932;2022-08-19T08:12:31;99283.91;;;25.36;80.53
32083;BME280;18597;48.328;7.932;2022-08-19T08:15:01;99289.97;;;25.38;80.97
32083;BME280;18597;48.328;7.932;2022-08-19T08:17:29;99290.59;;;25.52;79.79
32083;BME280;18597;48.328;7.932;2022-08-19T08:19:56;99292.25;;;25.53;78.23
32083;BME280;18597;48.328;7.932;2022-08-19T08:22:23;99302.16;;;25.12;81.11
32083;BME280;18597;48.328;7.932;2022-08-19T08:25:18;99301.50;;;25.29;79.39
32083;BME280;18597;48.328;7.932;2022-08-19T08:27:45;99307.00;;;25.40;78.22
32083;BME280;18597;48.328;7.932;2022-08-19T08:30:20;99304.72;;;25.26;79.05
32083;BME280;18597;48.328;7.932;2022-08-19T08:32:47;99315.53;;;25.32;77.96
32083;BME280;18597;48.328;7.932;2022-08-19T08:35:17;99320.56;;;25.47;76.90
32083;BME280;18597;48.328;7.932;2022-08-19T08:37:45;99318.22;;;25.74;78.01
32083;BME280;18597;48.328;7.932;2022-08-19T08:40:27;99322.75;;;26.04;73.37
32083;BME280;18597;48.328;7.932;2022-08-19T08:46:07;99329.25;;;26.38;72.34
32083;BME280;18597;48.328;7.932;2022-08-19T08:51:37;99324.56;;;26.62;70.92
32083;BME280;18597;48.328;7.932;2022-08-19T08:54:08;99322.69;;;26.91;66.15
32083;BME280;18597;48.328;7.932;2022-08-19T08:56:38;99328.81;;;26.98;65.24
32083;BME280;18597;48.328;7.932;2022-08-19T08:59:21;99341.59;;;27.04;66.92
32083;BME280;18597;48.328;7.932;2022-08-19T09:01:48;99335.50;;;27.02;65.48
32083;BME280;18597;48.328;7.932;2022-08-19T09:04:14;99335.38;;;26.97;66.12
32083;BME280;18597;48.328;7.932;2022-08-19T09:09:42;99342.53;;;26.98;66.13
32083;BME280;18597;48.328;7.932;2022-08-19T09:12:21;99343.28;;;26.93;66.07
32083;BME280;18597;48.328;7.932;2022-08-19T09:14:57;99347.53;;;27.01;66.88
32083;BME280;18597;48.328;7.932;2022-08-19T09:17:28;99345.13;;;27.16;66.33
32083;BME280;18597;48.328;7.932;2022-08-19T09:22:46;99355.13;;;27.39;64.01
32083;BME280;18597;48.328;7.932;2022-08-19T09:25:18;99362.25;;;27.23;62.43
32083;BME280;18597;48.328;7.932;2022-08-19T09:27:44;99358.41;;;26.96;63.52
32083;BME280;18597;48.328;7.932;2022-08-19T09:30:16;99356.50;;;26.96;63.05
32083;BME280;18597;48.328;7.932;2022-08-19T09:32:44;99359.47;;;27.06;62.57
32083;BME280;18597;48.328;7.932;2022-08-19T09:35:12;99361.59;;;27.33;63.76
32083;BME280;18597;48.328;7.932;2022-08-19T09:37:39;99357.47;;;27.64;62.62
32083;BME280;18597;48.328;7.932;2022-08-19T09:40:05;99350.19;;;28.25;60.46
32083;BME280;18597;48.328;7.932;2022-08-19T09:42:32;99349.69;;;29.16;57.14
32083;BME280;18597;48.328;7.932;2022-08-19T09:44:59;99351.88;;;29.68;54.14
32083;BME280;18597;48.328;7.932;2022-08-19T09:47:25;99342.34;;;30.23;52.80
32083;BME280;18597;48.328;7.932;2022-08-19T09:49:51;99343.06;;;30.50;50.46
32083;BME280;18597;48.328;7.932;2022-08-19T09:52:17;99344.91;;;30.34;50.45
32083;BME280;18597;48.328;7.932;2022-08-19T09:54:43;99350.88;;;30.16;51.55
32083;BME280;18597;48.328;7.932;2022-08-19T09:57:09;99357.72;;;29.76;52.04
32083;BME280;18597;48.328;7.932;2022-08-19T09:59:35;99360.97;;;29.41;53.89
32083;BME280;18597;48.328;7.932;2022-08-19T10:02:01;99358.56;;;29.23;53.36
32083;BME280;18597;48.328;7.932;2022-08-19T10:04:27;99357.03;;;29.05;53.96
32083;BME280;18597;48.328;7.932;2022-08-19T10:07:13;99356.66;;;28.96;54.54
32083;BME280;18597;48.328;7.932;2022-08-19T10:09:39;99358.31;;;28.97;55.58
32083;BME280;18597;48.328;7.932;2022-08-19T10:12:07;99346.03;;;29.05;54.35
32083;BME280;18597;48.328;7.932;2022-08-19T10:14:33;99348.09;;;29.20;53.64
32083;BME280;18597;48.328;7.932;2022-08-19T10:16:59;99345.72;;;29.28;53.81
32083;BME280;18597;48.328;7.932;2022-08-19T10:19:26;99353.69;;;29.30;53.59
32083;BME280;18597;48.328;7.932;2022-08-19T10:21:58;99352.88;;;29.29;53.15
32083;BME280;18597;48.328;7.932;2022-08-19T10:24:23;99358.06;;;29.26;52.95
32083;BME280;18597;48.328;7.932;2022-08-19T10:26:51;99358.63;;;29.28;53.00
32083;BME280;18597;48.328;7.932;2022-08-19T10:29:17;99362.06;;;29.40;53.24
32083;BME280;18597;48.328;7.932;2022-08-19T10:31:43;99360.00;;;29.52;51.78
32083;BME280;18597;48.328;7.932;2022-08-19T10:34:09;99351.84;;;29.36;51.03
32083;BME280;18597;48.328;7.932;2022-08-19T10:36:36;99354.84;;;29.07;51.95
32083;BME280;18597;48.328;7.932;2022-08-19T10:39:07;99359.13;;;28.76;53.75
32083;BME280;18597;48.328;7.932;2022-08-19T10:41:37;99355.69;;;28.64;54.62
32083;BME280;18597;48.328;7.932;2022-08-19T10:44:07;99343.72;;;28.31;55.49
32083;BME280;18597;48.328;7.932;2022-08-19T10:46:38;99345.53;;;28.26;56.90
32083;BME280;18597;48.328;7.932;2022-08-19T10:49:08;99342.72;;;28.37;55.17
32083;BME280;18597;48.328;7.932;2022-08-19T10:51:34;99341.34;;;28.40;55.12
32083;BME280;18597;48.328;7.932;2022-08-19T10:54:20;99346.19;;;28.50;55.53
32083;BME280;18597;48.328;7.932;2022-08-19T10:56:46;99336.88;;;28.56;54.73
32083;BME280;18597;48.328;7.932;2022-08-19T10:59:25;99337.09;;;28.49;54.61
32083;BME280;18597;48.328;7.932;2022-08-19T11:01:58;99335.88;;;28.40;54.50
32083;BME280;18597;48.328;7.932;2022-08-19T11:04:24;99326.97;;;28.33;55.44
32083;BME280;18597;48.328;7.932;2022-08-19T11:06:50;99329.38;;;28.29;55.47
32083;BME280;18597;48.328;7.932;2022-08-19T11:09:21;99329.50;;;28.34;56.21
32083;BME280;18597;48.328;7.932;2022-08-19T11:11:50;99330.88;;;28.37;54.56
32083;BME280;18597;48.328;7.932;2022-08-19T11:14:17;99326.16;;;28.32;54.28
32083;BME280;18597;48.328;7.932;2022-08-19T11:16:47;99330.13;;;28.25;56.16
32083;BME280;18597;48.328;7.932;2022-08-19T11:19:14;99332.72;;;28.31;55.46
32083;BME280;18597;48.328;7.932;2022-08-19T11:21:45;99327.91;;;28.22;55.67
32083;BME280;18597;48.328;7.932;2022-08-19T11:24:17;99325.81;;;28.29;54.74
32083;BME280;18597;48.328;7.932;2022-08-19T11:26:44;99329.06;;;28.42;54.64
32083;BME280;18597;48.328;7.932;2022-08-19T11:29:12;99334.41;;;28.54;53.58
32083;BME280;18597;48.328;7.932;2022-08-19T11:31:43;99341.09;;;28.85;53.19
32083;BME280;18597;48.328;7.932;2022-08-19T11:34:16;99338.13;;;29.14;51.10
32083;BME280;18597;48.328;7.932;2022-08-19T11:36:45;99335.16;;;29.47;50.86
32083;BME280;18597;48.328;7.932;2022-08-19T11:39:14;99325.59;;;29.87;50.13
32083;BME280;18597;48.328;7.932;2022-08-19T11:41:41;99318.09;;;30.20;49.09
32083;BME280;18597;48.328;7.932;2022-08-19T11:44:07;99318.28;;;30.55;46.90
32083;BME280;18597;48.328;7.932;2022-08-19T11:46:35;99321.06;;;30.65;46.40
32083;BME280;18597;48.328;7.932;2022-08-19T11:49:04;99324.50;;;30.93;46.09
32083;BME280;18597;48.328;7.932;2022-08-19T11:51:31;99326.75;;;31.16;45.12
32083;BME280;18597;48.328;7.932;2022-08-19T11:53:59;99326.53;;;31.23;45.36
32083;BME280;18597;48.328;7.932;2022-08-19T11:56:26;99321.28;;;31.42;45.12
32083;BME280;18597;48.328;7.932;2022-08-19T11:58:54;99314.41;;;31.29;44.53
32083;BME280;18597;48.328;7.932;2022-08-19T12:01:24;99318.25;;;31.43;44.55
32083;BME280;18597;48.328;7.932;2022-08-19T12:03:53;99325.44;;;31.55;44.35
32083;BME280;18597;48.328;7.932;2022-08-19T12:06:25;99320.16;;;31.58;44.33
32083;BME280;18597;48.328;7.932;2022-08-19T12:08:56;99316.59;;;31.53;43.19
32083;BME280;18597;48.328;7.932;2022-08-19T12:11:24;99312.19;;;31.46;43.63
32083;BME280;18597;48.328;7.932;2022-08-19T12:13:51;99316.31;;;31.54;43.84
32083;BME280;18597;48.328;7.932;2022-08-19T12:16:25;99315.78;;;31.52;43.50
32083;BME280;18597;48.328;7.932;2022-08-19T12:18:53;99316.31;;;31.64;42.97
32083;BME280;18597;48.328;7.932;2022-08-19T12:21:24;99316.31;;;31.95;42.64
32083;BME280;18597;48.328;7.932;2022-08-19T12:23:55;99309.63;;;32.21;40.99
32083;BME280;18597;48.328;7.932;2022-08-19T12:26:21;99301.84;;;32.44;39.92
32083;BME280;18597;48.328;7.932;2022-08-19T12:28:47;99300.66;;;32.55;40.70
32083;BME280;18597;48.328;7.932;2022-08-19T12:31:14;99303.44;;;32.55;40.75
32083;BME280;18597;48.328;7.932;2022-08-19T12:33:42;99304.53;;;32.59;38.86
32083;BME280;18597;48.328;7.932;2022-08-19T12:36:11;99298.78;;;32.50;39.99
32083;BME280;18597;48.328;7.932;2022-08-19T12:38:38;99296.34;;;32.23;38.47
32083;BME280;18597;48.328;7.932;2022-08-19T12:41:06;99295.56;;;32.02;39.74
32083;BME280;18597;48.328;7.932;2022-08-19T12:43:33;99295.28;;;32.04;39.75
32083;BME280;18597;48.328;7.932;2022-08-19T12:46:01;99296.97;;;32.05;39.82
32083;BME280;18597;48.328;7.932;2022-08-19T12:48:27;99298.41;;;31.36;39.95
32083;BME280;18597;48.328;7.932;2022-08-19T12:50:53;99288.13;;;31.06;41.83
32083;BME280;18597;48.328;7.932;2022-08-19T12:53:19;99284.50;;;30.96;42.57
32083;BME280;18597;48.328;7.932;2022-08-19T12:55:45;99290.00;;;30.90;44.04
32083;BME280;18597;48.328;7.932;2022-08-19T12:58:12;99292.91;;;30.58;43.52
32083;BME280;18597;48.328;7.932;2022-08-19T13:00:38;99289.31;;;30.53;44.51
32083;BME280;18597;48.328;7.932;2022-08-19T13:03:04;99290.72;;;30.60;44.08
32083;BME280;18597;48.328;7.932;2022-08-19T13:05:32;99288.06;;;30.86;42.83
32083;BME280;18597;48.328;7.932;2022-08-19T13:08:00;99294.16;;;31.13;43.06
32083;BME280;18597;48.328;7.932;2022-08-19T13:10:31;99292.88;;;31.36;42.74
32083;BME280;18597;48.328;7.932;2022-08-19T13:13:03;99281.50;;;31.07;42.24
32083;BME280;18597;48.328;7.932;2022-08-19T13:15:35;99279.84;;;31.11;43.13